3 – eServices

Baggage tracing
Cargo tracing
Weather
  • METAR

    EFMA 211050Z AUTO 17005KT 140V200 CAVOK 10/02 Q1022

    EFTU 211050Z AUTO VRB02KT 9999 FEW030 10/01 Q1022

    EFHK 211050Z 05006KT 9999 FEW020 08/04 Q1022 NOSIG

    ESSA 211050Z 19005KT 9999 -RA FEW021 BKN037 08/06 Q1022 TEMPO RA

    ESSB 211050Z 25004KT 230V290 9999 -DZ FEW019 SCT035 BKN046 10/06 Q1022

  • TAF n/a

Flightradar24